Time;durP1;ratioP1;P1;durP2;ratioP2;P2;SDS_P1;SDS_P2;PMS_P1;PMS_P2;Temp;Humidity;BMP_temperature;BMP_pressure;BME280_temperature;BME280_humidity;BME280_pressure;Samples;Min_cycle;Max_cycle;Signal;HPM_P1;HPM_P2
2021/09/16 00:02:24;;;;;;;;;;;;;;;26.75;38.14;100929.28;5118860;28;838;-36
2021/09/16 00:04:49;;;;;;;;;;;;;;;26.57;37.87;100932.22;5118788;28;782;-35
2021/09/16 00:07:15;;;;;;;;;;;;;;;26.15;38.51;100934.19;5118645;28;942;-35
2021/09/16 00:09:40;;;;;;;;;;;;;;;26.16;38.23;100931.31;5118294;28;843;-36
2021/09/16 00:12:05;;;;;;;;;;;;;;;25.96;38.90;100935.41;5121074;27;1440;-36
2021/09/16 00:14:31;;;;;;;;;;;;;;;26.01;38.67;100933.00;5144623;27;1914;-35
2021/09/16 00:16:56;;;;;;;;;;;;;;;26.04;38.77;100930.81;5139203;27;802;-34
2021/09/16 00:19:22;;;;;;;;;;;;;;;26.19;38.90;100924.75;5138870;27;842;-35
2021/09/16 00:21:47;;;;;;;;;;;;;;;26.23;38.99;100926.06;5130659;27;1670;-36
2021/09/16 00:24:12;;;;;;;;;;;;;;;26.22;38.86;100927.09;5118582;28;842;-35
2021/09/16 00:26:38;;;;;;;;;;;;;;;26.20;39.09;100931.81;5137331;27;735;-35
2021/09/16 00:29:03;;;;;;;;;;;;;;;26.18;39.12;100928.44;5138544;27;842;-36
2021/09/16 00:31:28;;;;;;;;;;;;;;;26.19;39.43;100926.59;5138912;27;770;-34
2021/09/16 00:33:54;;;;;;;;;;;;;;;26.26;39.32;100935.66;5138301;27;731;-35
2021/09/16 00:36:19;;;;;;;;;;;;;;;26.21;39.51;100928.09;5138610;27;1901;-35
2021/09/16 00:38:44;;;;;;;;;;;;;;;26.21;39.16;100943.44;5138023;27;830;-34
2021/09/16 00:41:09;;;;;;;;;;;;;;;26.01;39.67;100936.56;5139541;27;1094;-36
2021/09/16 00:43:35;;;;;;;;;;;;;;;26.14;39.59;100936.03;5137934;27;759;-36
2021/09/16 00:46:01;;;;;;;;;;;;;;;26.06;39.59;100936.03;5137590;27;807;-35
2021/09/16 00:48:26;;;;;;;;;;;;;;;26.13;39.29;100934.34;5143430;27;1271;-35
2021/09/16 00:50:52;;;;;;;;;;;;;;;26.09;39.48;100930.31;5158948;27;841;-33
2021/09/16 00:53:17;;;;;;;;;;;;;;;26.09;39.34;100933.00;5159460;27;961;-34
2021/09/16 00:55:42;;;;;;;;;;;;;;;26.10;39.72;100940.09;5140137;27;1901;-36
2021/09/16 00:58:08;;;;;;;;;;;;;;;26.19;39.24;100930.13;5139901;27;1309;-35
2021/09/16 01:00:35;;;;;;;;;;;;;;;25.97;40.35;100931.69;5158638;27;771;-42
2021/09/16 01:03:00;;;;;;;;;;;;;;;26.31;39.54;100921.69;5158906;27;830;-39
2021/09/16 01:05:26;;;;;;;;;;;;;;;26.26;39.88;100920.31;5158765;27;771;-41
2021/09/16 01:07:51;;;;;;;;;;;;;;;26.41;39.37;100923.19;5158932;27;993;-41
2021/09/16 01:10:19;;;;;;;;;;;;;;;26.61;39.19;100922.75;5158787;27;796;-39
2021/09/16 01:12:46;;;;;;;;;;;;;;;26.70;39.38;100922.72;5158484;27;785;-38
2021/09/16 01:15:11;;;;;;;;;;;;;;;26.68;39.31;100920.19;5158313;27;1959;-40
2021/09/16 01:17:37;;;;;;;;;;;;;;;26.69;38.95;100921.06;5158756;27;733;-39
2021/09/16 01:20:03;;;;;;;;;;;;;;;26.63;39.48;100915.34;5158878;27;794;-41
2021/09/16 01:22:32;;;;;;;;;;;;;;;26.70;39.22;100917.31;5158761;27;1608;-39
2021/09/16 01:24:57;;;;;;;;;;;;;;;26.72;39.14;100918.00;5158328;27;815;-41
2021/09/16 01:27:22;;;;;;;;;;;;;;;26.76;38.88;100911.22;5158201;27;751;-38
2021/09/16 01:29:48;;;;;;;;;;;;;;;26.76;39.17;100911.22;5159067;27;817;-39
2021/09/16 01:32:13;;;;;;;;;;;;;;;26.78;38.79;100915.44;5158729;27;850;-37
2021/09/16 01:34:38;;;;;;;;;;;;;;;26.76;39.11;100911.22;5158356;27;1901;-39
2021/09/16 01:37:05;;;;;;;;;;;;;;;26.80;38.91;100909.00;5157824;27;1004;-39
2021/09/16 01:39:30;;;;;;;;;;;;;;;26.70;39.32;100906.53;5157947;27;815;-38
2021/09/16 01:41:55;;;;;;;;;;;;;;;26.75;39.10;100912.25;5158256;27;782;-38
2021/09/16 01:44:20;;;;;;;;;;;;;;;26.79;39.36;100908.19;5158315;27;878;-38
2021/09/16 01:46:46;;;;;;;;;;;;;;;26.79;39.06;100910.88;5158278;27;775;-38
2021/09/16 01:49:11;;;;;;;;;;;;;;;26.88;39.05;100904.41;5157894;27;1100;-37
2021/09/16 01:51:37;;;;;;;;;;;;;;;26.84;39.25;100911.16;5151504;27;961;-39
2021/09/16 01:54:02;;;;;;;;;;;;;;;26.83;39.00;100916.75;5137216;27;829;-37
2021/09/16 01:56:28;;;;;;;;;;;;;;;26.73;39.08;100911.56;5136854;27;1969;-38
2021/09/16 01:58:53;;;;;;;;;;;;;;;26.78;39.23;100910.03;5136628;27;914;-39
2021/09/16 02:01:18;;;;;;;;;;;;;;;26.77;38.84;100916.47;5137296;27;924;-39
2021/09/16 02:03:44;;;;;;;;;;;;;;;26.82;38.78;100917.78;5136380;27;810;-39
2021/09/16 02:06:09;;;;;;;;;;;;;;;26.79;39.10;100916.28;5136072;27;1000;-39
2021/09/16 02:08:34;;;;;;;;;;;;;;;26.81;39.32;100908.00;5118647;27;1286;-40
2021/09/16 02:11:00;;;;;;;;;;;;;;;26.88;38.95;100903.56;5136222;27;865;-38
2021/09/16 02:13:26;;;;;;;;;;;;;;;26.80;39.13;100900.91;5137574;27;830;-36
2021/09/16 02:15:51;;;;;;;;;;;;;;;26.81;39.25;100906.13;5137031;27;1945;-38
2021/09/16 02:18:17;;;;;;;;;;;;;;;26.86;39.32;100898.34;5136380;27;734;-36
2021/09/16 02:20:42;;;;;;;;;;;;;;;26.83;39.28;100908.66;5138180;27;1781;-39
2021/09/16 02:23:07;;;;;;;;;;;;;;;26.87;39.25;100902.75;5157704;27;1001;-38
2021/09/16 02:25:33;;;;;;;;;;;;;;;26.80;39.36;100911.72;5157279;27;749;-39
2021/09/16 02:27:58;;;;;;;;;;;;;;;26.85;39.17;100904.78;5157171;27;743;-39
2021/09/16 02:30:23;;;;;;;;;;;;;;;26.80;39.53;100907.16;5157624;27;813;-38
2021/09/16 02:32:49;;;;;;;;;;;;;;;26.91;39.19;100905.91;5156427;27;909;-39
2021/09/16 02:35:14;;;;;;;;;;;;;;;26.91;38.82;100911.31;5157457;27;1897;-39
2021/09/16 02:37:39;;;;;;;;;;;;;;;26.85;39.31;100912.88;5156945;27;941;-39
2021/09/16 02:40:07;;;;;;;;;;;;;;;26.89;39.22;100916.88;5156902;27;846;-39
2021/09/16 02:42:32;;;;;;;;;;;;;;;26.99;39.06;100916.66;5156665;27;864;-39
2021/09/16 02:44:57;;;;;;;;;;;;;;;26.93;38.99;100909.28;5157250;27;741;-38
2021/09/16 02:47:23;;;;;;;;;;;;;;;26.86;39.09;100909.13;5156916;27;878;-38
2021/09/16 02:49:48;;;;;;;;;;;;;;;26.90;39.27;100913.19;5156651;27;1272;-39
2021/09/16 02:52:16;;;;;;;;;;;;;;;26.93;39.47;100911.97;5134191;27;977;-40
2021/09/16 02:54:42;;;;;;;;;;;;;;;26.87;39.34;100905.44;5116359;28;1914;-41
2021/09/16 02:57:07;;;;;;;;;;;;;;;26.93;39.27;100911.13;5115379;28;764;-39
2021/09/16 02:59:32;;;;;;;;;;;;;;;26.92;39.18;100909.44;5115556;28;878;-39
2021/09/16 03:02:00;;;;;;;;;;;;;;;26.96;39.20;100911.59;5115437;28;779;-41
2021/09/16 03:04:26;;;;;;;;;;;;;;;27.25;37.47;100912.81;5115521;28;835;-41
2021/09/16 03:06:51;;;;;;;;;;;;;;;26.85;38.35;100915.56;5115758;28;942;-41
2021/09/16 03:09:17;;;;;;;;;;;;;;;26.78;38.55;100912.72;5115015;28;823;-40
2021/09/16 03:11:42;;;;;;;;;;;;;;;26.06;39.98;100914.47;5115355;28;815;-41
2021/09/16 03:14:08;;;;;;;;;;;;;;;25.23;40.76;100918.00;5115763;28;809;-34
2021/09/16 03:16:33;;;;;;;;;;;;;;;24.45;42.57;100916.25;5115448;28;1972;-39
2021/09/16 03:18:58;;;;;;;;;;;;;;;24.98;41.39;100926.03;5115055;28;573;-39
2021/09/16 03:21:23;;;;;;;;;;;;;;;24.85;41.52;100920.25;5122253;28;1554;-37
2021/09/16 03:23:49;;;;;;;;;;;;;;;25.06;41.51;100914.44;5136114;28;763;-37
2021/09/16 03:26:14;;;;;;;;;;;;;;;24.94;41.71;100920.13;5135796;28;779;-40
2021/09/16 03:28:40;;;;;;;;;;;;;;;25.00;41.94;100920.50;5135755;28;814;-39
2021/09/16 03:31:06;;;;;;;;;;;;;;;25.71;40.53;100930.03;5136482;28;790;-37
2021/09/16 03:33:31;;;;;;;;;;;;;;;26.03;39.56;100936.38;5135737;28;783;-37
2021/09/16 03:35:57;;;;;;;;;;;;;;;26.03;39.48;100925.59;5135501;28;1970;-38
2021/09/16 03:38:22;;;;;;;;;;;;;;;26.16;39.25;100925.91;5151166;27;1039;-42
2021/09/16 03:40:47;;;;;;;;;;;;;;;26.13;39.21;100920.88;5156000;27;873;-40
2021/09/16 03:43:12;;;;;;;;;;;;;;;25.99;39.39;100922.41;5156259;27;820;-44
2021/09/16 03:45:38;;;;;;;;;;;;;;;26.07;39.25;100921.56;5156989;27;829;-37
2021/09/16 03:48:03;;;;;;;;;;;;;;;26.17;39.27;100927.59;5155705;27;1215;-36
2021/09/16 03:50:28;;;;;;;;;;;;;;;25.87;39.86;100943.50;5148218;27;1551;-34
2021/09/16 03:52:54;;;;;;;;;;;;;;;24.91;42.12;100954.59;5149859;27;930;-42
2021/09/16 03:55:19;;;;;;;;;;;;;;;24.52;43.45;100958.63;5155781;27;1901;-39
2021/09/16 03:57:44;;;;;;;;;;;;;;;25.84;41.00;100959.16;5156206;27;814;-39
2021/09/16 04:00:10;;;;;;;;;;;;;;;26.10;40.44;100964.34;5156009;27;725;-37
2021/09/16 04:02:35;;;;;;;;;;;;;;;26.13;40.12;100961.31;5155916;27;770;-40
2021/09/16 04:05:01;;;;;;;;;;;;;;;26.36;39.64;100966.00;5156258;27;866;-34
2021/09/16 04:07:29;;;;;;;;;;;;;;;26.41;39.25;100960.09;5141350;27;949;-34
2021/09/16 04:09:54;;;;;;;;;;;;;;;26.28;39.63;100964.16;5135537;28;834;-36
2021/09/16 04:12:20;;;;;;;;;;;;;;;26.12;39.56;100970.44;5135178;28;906;-36
2021/09/16 04:14:45;;;;;;;;;;;;;;;26.04;40.58;100960.47;5135603;28;1964;-37
2021/09/16 04:17:10;;;;;;;;;;;;;;;26.40;39.77;100951.19;5128866;28;1180;-40
2021/09/16 04:19:35;;;;;;;;;;;;;;;26.63;39.24;100957.66;5142461;27;854;-43
2021/09/16 04:22:01;;;;;;;;;;;;;;;26.69;39.28;100945.34;5127600;27;1689;-35
2021/09/16 04:24:26;;;;;;;;;;;;;;;26.57;39.54;100936.78;5118241;28;791;-40
2021/09/16 04:26:51;;;;;;;;;;;;;;;26.24;40.47;100940.41;5134171;27;863;-37
2021/09/16 04:29:17;;;;;;;;;;;;;;;25.98;41.76;100941.44;5139141;27;888;-36
2021/09/16 04:31:43;;;;;;;;;;;;;;;25.93;42.76;100925.78;5138046;27;818;-36
2021/09/16 04:34:08;;;;;;;;;;;;;;;25.98;42.91;100928.81;5138787;27;818;-36
2021/09/16 04:36:34;;;;;;;;;;;;;;;25.66;44.05;100927.81;5138209;27;1964;-36
2021/09/16 04:39:00;;;;;;;;;;;;;;;25.36;44.38;100930.16;5146952;27;1087;-39
2021/09/16 04:41:25;;;;;;;;;;;;;;;25.66;43.90;100934.06;5138648;27;762;-44
2021/09/16 04:43:50;;;;;;;;;;;;;;;25.78;43.70;100941.81;5138361;27;791;-36
2021/09/16 04:46:16;;;;;;;;;;;;;;;25.79;43.68;100940.81;5138038;27;766;-35
2021/09/16 04:48:41;;;;;;;;;;;;;;;26.01;43.14;100949.19;5145829;27;1123;-41
2021/09/16 04:51:06;;;;;;;;;;;;;;;25.99;43.00;100938.56;5155796;27;858;-39
2021/09/16 04:53:32;;;;;;;;;;;;;;;26.11;42.97;100939.06;5137827;27;975;-39
2021/09/16 04:55:58;;;;;;;;;;;;;;;25.98;42.97;100939.59;5138379;27;1909;-39
2021/09/16 04:58:23;;;;;;;;;;;;;;;25.93;42.95;100944.66;5138083;27;822;-36
2021/09/16 05:00:49;;;;;;;;;;;;;;;25.97;42.71;100942.47;5138132;27;846;-38
2021/09/16 05:03:15;;;;;;;;;;;;;;;25.98;42.92;100955.78;5138190;27;751;-40
2021/09/16 05:05:40;;;;;;;;;;;;;;;25.94;43.11;100959.84;5157614;27;847;-40
2021/09/16 05:08:05;;;;;;;;;;;;;;;25.45;44.48;100956.09;5139847;27;933;-35
2021/09/16 05:10:30;;;;;;;;;;;;;;;25.27;44.62;100949.00;5137972;27;794;-42
2021/09/16 05:12:56;;;;;;;;;;;;;;;26.10;43.13;100947.31;5137857;27;807;-39
2021/09/16 05:15:21;;;;;;;;;;;;;;;26.70;41.01;100958.66;5138050;27;1909;-38
2021/09/16 05:17:46;;;;;;;;;;;;;;;26.93;41.02;100948.91;5151040;27;859;-41
2021/09/16 05:20:12;;;;;;;;;;;;;;;27.04;40.73;100953.97;5158509;27;865;-41
2021/09/16 05:22:37;;;;;;;;;;;;;;;27.26;40.17;100964.94;5143288;27;1552;-39
2021/09/16 05:25:03;;;;;;;;;;;;;;;27.04;39.84;100963.91;5137302;27;862;-44
2021/09/16 05:27:28;;;;;;;;;;;;;;;26.67;42.01;100969.78;5137606;27;771;-36
2021/09/16 05:29:54;;;;;;;;;;;;;;;26.60;42.18;100975.06;5145446;27;878;-37
2021/09/16 05:32:19;;;;;;;;;;;;;;;26.37;42.94;100969.56;5158004;27;798;-38
2021/09/16 05:34:44;;;;;;;;;;;;;;;26.85;41.73;100966.00;5157825;27;1902;-41
2021/09/16 05:37:10;;;;;;;;;;;;;;;27.21;40.22;100964.69;5151999;27;1000;-44
2021/09/16 05:39:35;;;;;;;;;;;;;;;27.47;39.70;100958.91;5157785;27;854;-36
2021/09/16 05:42:00;;;;;;;;;;;;;;;27.68;38.83;100960.13;5156917;27;849;-42
2021/09/16 05:44:26;;;;;;;;;;;;;;;27.64;39.15;100966.91;5158036;27;742;-41
2021/09/16 05:46:51;;;;;;;;;;;;;;;27.72;38.87;100964.16;5157756;27;854;-44
2021/09/16 05:49:16;;;;;;;;;;;;;;;27.77;39.18;100974.41;5157068;27;1246;-39
2021/09/16 05:51:41;;;;;;;;;;;;;;;27.65;39.44;100976.69;5151013;27;984;-43
2021/09/16 05:54:07;;;;;;;;;;;;;;;27.82;39.00;100979.28;5117865;27;1276;-42
2021/09/16 05:56:32;;;;;;;;;;;;;;;27.84;38.04;100980.75;5154165;27;1909;-35
2021/09/16 05:58:58;;;;;;;;;;;;;;;27.92;38.18;100992.53;5157920;27;762;-36
2021/09/16 06:01:23;;;;;;;;;;;;;;;27.72;38.76;100984.94;5157623;27;826;-45
2021/09/16 06:03:48;;;;;;;;;;;;;;;27.67;39.16;100992.72;5157669;27;752;-38
2021/09/16 06:06:13;;;;;;;;;;;;;;;27.74;38.35;100996.41;5154431;27;1033;-37
2021/09/16 06:08:39;;;;;;;;;;;;;;;27.90;38.14;101003.53;5128774;27;844;-38
2021/09/16 06:11:04;;;;;;;;;;;;;;;27.99;38.44;100999.72;5158016;27;850;-37
2021/09/16 06:13:30;;;;;;;;;;;;;;;27.87;38.87;101003.91;5157743;27;849;-38
2021/09/16 06:15:55;;;;;;;;;;;;;;;28.07;38.12;101006.09;5156624;27;1897;-40
2021/09/16 06:18:20;;;;;;;;;;;;;;;28.14;37.26;101007.06;5157459;27;826;-37
2021/09/16 06:20:46;;;;;;;;;;;;;;;28.22;37.84;101006.13;5155903;27;1314;-41
2021/09/16 06:23:11;;;;;;;;;;;;;;;28.22;37.15;101003.41;5137823;27;934;-39
2021/09/16 06:25:36;;;;;;;;;;;;;;;28.22;37.32;101004.25;5136062;27;753;-38
2021/09/16 06:28:02;;;;;;;;;;;;;;;28.20;37.44;101010.88;5135860;27;854;-37
2021/09/16 06:30:27;;;;;;;;;;;;;;;28.34;37.02;101009.25;5136074;27;823;-39
2021/09/16 06:32:53;;;;;;;;;;;;;;;28.28;37.27;101010.78;5136341;27;821;-42
2021/09/16 06:35:20;;;;;;;;;;;;;;;28.22;37.27;101014.22;5156447;27;1902;-40
2021/09/16 06:37:45;;;;;;;;;;;;;;;28.24;37.06;101013.00;5150408;27;1008;-38
2021/09/16 06:40:11;;;;;;;;;;;;;;;28.26;37.31;101015.53;5157076;27;793;-43
2021/09/16 06:42:36;;;;;;;;;;;;;;;28.39;36.60;101012.25;5157229;27;791;-45
2021/09/16 06:45:01;;;;;;;;;;;;;;;28.38;36.49;101015.13;5156153;27;775;-38
2021/09/16 06:47:27;;;;;;;;;;;;;;;28.40;37.01;101019.31;5155538;27;961;-40
2021/09/16 06:49:52;;;;;;;;;;;;;;;28.28;37.51;101023.50;5156847;27;1727;-46
2021/09/16 06:52:19;;;;;;;;;;;;;;;28.48;36.79;101034.63;5144420;27;968;-44
2021/09/16 06:54:44;;;;;;;;;;;;;;;28.47;36.75;101022.13;5135808;27;1907;-39
2021/09/16 06:57:10;;;;;;;;;;;;;;;28.43;36.53;101026.22;5135715;27;759;-42
2021/09/16 06:59:35;;;;;;;;;;;;;;;28.38;36.87;101028.66;5145270;27;871;-34
2021/09/16 07:02:01;;;;;;;;;;;;;;;28.43;36.56;101026.22;5157043;27;750;-38
2021/09/16 07:04:26;;;;;;;;;;;;;;;28.39;36.28;101025.78;5156947;27;751;-34
2021/09/16 07:06:51;;;;;;;;;;;;;;;28.42;36.92;101032.66;5147215;27;987;-42
2021/09/16 07:09:17;;;;;;;;;;;;;;;28.48;36.34;101030.06;5136076;28;751;-38
2021/09/16 07:11:42;;;;;;;;;;;;;;;28.53;36.06;101032.19;5139745;27;828;-44
2021/09/16 07:14:07;;;;;;;;;;;;;;;28.34;36.63;101034.41;5156873;27;837;-34
2021/09/16 07:16:32;;;;;;;;;;;;;;;28.39;37.02;101033.88;5155921;27;1978;-48
2021/09/16 07:18:58;;;;;;;;;;;;;;;28.29;37.27;101034.13;5156361;27;828;-33
2021/09/16 07:21:23;;;;;;;;;;;;;;;28.19;37.27;101034.38;5152052;27;1673;-38
2021/09/16 07:23:48;;;;;;;;;;;;;;;28.14;37.42;101033.25;5136021;28;826;-36
2021/09/16 07:26:14;;;;;;;;;;;;;;;28.50;37.09;101034.44;5154450;27;860;-45
2021/09/16 07:28:39;;;;;;;;;;;;;;;27.95;37.69;101030.88;5156334;27;869;-45
2021/09/16 07:31:04;;;;;;;;;;;;;;;28.28;37.52;101026.19;5155972;27;778;-36
2021/09/16 07:33:30;;;;;;;;;;;;;;;28.27;37.39;101032.59;5156360;27;845;-38
2021/09/16 07:35:55;;;;;;;;;;;;;;;28.17;36.99;101028.31;5155856;27;1963;-38
2021/09/16 07:38:20;;;;;;;;;;;;;;;28.30;37.03;101029.53;5147809;27;1142;-41
2021/09/16 07:40:49;;;;;;;;;;;;;;;28.42;37.22;101038.06;5156953;27;762;-37
2021/09/16 07:43:14;;;;;;;;;;;;;;;28.75;36.02;101034.16;5156641;27;855;-40
2021/09/16 07:45:39;;;;;;;;;;;;;;;28.48;36.57;101040.03;5156044;27;870;-43
2021/09/16 07:48:05;;;;;;;;;;;;;;;28.03;37.33;101034.53;5154650;27;1093;-39
2021/09/16 07:50:30;;;;;;;;;;;;;;;28.35;37.31;101029.84;5155173;27;870;-36
2021/09/16 07:52:55;;;;;;;;;;;;;;;28.52;36.48;101030.53;5139244;27;1008;-38
2021/09/16 07:55:21;;;;;;;;;;;;;;;28.50;36.78;101023.59;5137706;27;1913;-37
2021/09/16 07:57:46;;;;;;;;;;;;;;;28.51;36.66;101033.44;5138845;27;862;-40
2021/09/16 08:00:12;;;;;;;;;;;;;;;27.96;37.30;101027.13;5139072;27;810;-34
2021/09/16 08:02:47;;;;;;;;;;;;;;;28.43;36.64;101028.91;5139777;27;879;-38
2021/09/16 08:05:13;;;;;;;;;;;;;;;28.42;35.53;101027.25;5160169;27;742;-38
2021/09/16 08:07:38;;;;;;;;;;;;;;;28.35;36.45;101029.84;5144303;27;1004;-42
2021/09/16 08:10:03;;;;;;;;;;;;;;;28.44;36.10;101033.31;5139370;27;780;-36
2021/09/16 08:12:29;;;;;;;;;;;;;;;28.34;36.31;101036.31;5139576;27;732;-36
2021/09/16 08:14:54;;;;;;;;;;;;;;;28.33;37.04;101034.59;5139064;27;1898;-39
2021/09/16 08:17:19;;;;;;;;;;;;;;;28.44;36.87;101028.75;5156641;27;894;-41
2021/09/16 08:19:45;;;;;;;;;;;;;;;28.54;37.17;101031.19;5159616;27;837;-38
2021/09/16 08:22:10;;;;;;;;;;;;;;;28.46;37.20;101026.69;5148656;27;1556;-41
2021/09/16 08:24:36;;;;;;;;;;;;;;;28.35;37.54;101027.16;5139262;27;877;-35
2021/09/16 08:27:01;;;;;;;;;;;;;;;28.30;38.28;101021.41;5139044;27;763;-39
2021/09/16 08:29:26;;;;;;;;;;;;;;;28.42;38.04;101033.50;5150437;27;847;-36
2021/09/16 08:31:52;;;;;;;;;;;;;;;28.47;37.30;101022.97;5160044;27;806;-38
2021/09/16 08:34:17;;;;;;;;;;;;;;;28.41;37.19;101025.59;5159830;27;770;-38
2021/09/16 08:36:42;;;;;;;;;;;;;;;28.56;37.06;101020.19;5152430;27;2226;-38
2021/09/16 08:39:08;;;;;;;;;;;;;;;28.59;36.87;101017.91;5158485;27;854;-41
2021/09/16 08:41:33;;;;;;;;;;;;;;;28.57;37.14;101017.28;5158335;27;870;-43
2021/09/16 08:44:01;;;;;;;;;;;;;;;28.57;37.05;101020.00;5159072;27;840;-36
2021/09/16 08:46:27;;;;;;;;;;;;;;;28.67;36.79;101013.44;5159578;27;812;-34
2021/09/16 08:48:55;;;;;;;;;;;;;;;28.62;37.02;101010.47;5159607;27;1130;-39
2021/09/16 08:51:21;;;;;;;;;;;;;;;28.67;36.55;101008.03;5154739;27;877;-38
2021/09/16 08:53:46;;;;;;;;;;;;;;;28.73;36.50;101001.84;5153241;27;1145;-42
2021/09/16 08:56:12;;;;;;;;;;;;;;;28.85;36.36;101010.34;5159185;27;1910;-41
2021/09/16 08:58:37;;;;;;;;;;;;;;;28.80;36.23;101010.91;5157562;27;787;-43
2021/09/16 09:01:02;;;;;;;;;;;;;;;28.89;36.26;101005.41;5157412;27;830;-38
2021/09/16 09:03:28;;;;;;;;;;;;;;;28.91;36.38;101003.34;5158768;27;842;-37
2021/09/16 09:05:53;;;;;;;;;;;;;;;28.91;36.25;101004.16;5158571;27;747;-44
2021/09/16 09:08:25;;;;;;;;;;;;;;;28.94;36.45;101008.38;5135236;27;1032;-36
2021/09/16 09:10:54;;;;;;;;;;;;;;;28.98;36.64;101006.19;5158566;27;795;-42
2021/09/16 09:13:33;;;;;;;;;;;;;;;29.19;35.65;101002.66;5158730;27;823;-44
2021/09/16 09:16:02;;;;;;;;;;;;;;;28.94;36.38;100998.41;5158818;27;1897;-41
2021/09/16 09:18:39;;;;;;;;;;;;;;;28.84;36.63;101003.28;5158757;27;782;-37
2021/09/16 09:21:05;;;;;;;;;;;;;;;28.96;36.49;100998.22;5155419;27;1284;-38
2021/09/16 09:23:31;;;;;;;;;;;;;;;29.02;35.83;100997.47;5138262;27;782;-42
2021/09/16 09:25:57;;;;;;;;;;;;;;;28.90;35.75;100994.38;5137857;27;763;-34
2021/09/16 09:28:27;;;;;;;;;;;;;;;28.89;35.93;100990.00;5137724;27;815;-38
2021/09/16 09:30:52;;;;;;;;;;;;;;;28.84;36.65;100992.44;5137599;27;828;-36
2021/09/16 09:33:17;;;;;;;;;;;;;;;28.91;36.21;100985.22;5149219;27;817;-35
2021/09/16 09:35:46;;;;;;;;;;;;;;;28.94;35.85;100987.56;5156442;27;1956;-37
2021/09/16 09:38:11;;;;;;;;;;;;;;;28.90;35.91;100983.56;5152187;27;948;-41
2021/09/16 09:40:37;;;;;;;;;;;;;;;28.94;35.67;100982.16;5158020;27;1443;-37
2021/09/16 09:43:21;;;;;;;;;;;;;;;28.89;35.96;100976.47;5157800;27;735;-42
2021/09/16 09:45:58;;;;;;;;;;;;;;;28.71;36.82;100983.09;5156809;27;870;-37
2021/09/16 09:48:23;;;;;;;;;;;;;;;28.79;36.60;100986.75;5158006;27;1135;-43
2021/09/16 09:50:52;;;;;;;;;;;;;;;28.91;35.76;100978.97;5157666;27;790;-42
2021/09/16 09:53:17;;;;;;;;;;;;;;;28.85;35.72;100985.97;5136916;27;949;-37
2021/09/16 09:55:42;;;;;;;;;;;;;;;28.84;36.83;100977.00;5137401;27;1905;-36
2021/09/16 09:58:08;;;;;;;;;;;;;;;28.98;36.35;100971.78;5141595;27;808;-36
2021/09/16 10:00:33;;;;;;;;;;;;;;;29.03;35.74;100973.94;5158134;27;904;-38
2021/09/16 10:03:00;;;;;;;;;;;;;;;29.02;35.87;100973.09;5157543;27;815;-35
2021/09/16 10:05:28;;;;;;;;;;;;;;;28.89;36.21;100971.06;5157133;27;822;-37
2021/09/16 10:07:54;;;;;;;;;;;;;;;29.05;35.71;100972.72;5140606;27;992;-40
2021/09/16 10:10:20;;;;;;;;;;;;;;;29.04;36.92;100970.19;5137356;27;890;-36
2021/09/16 10:12:46;;;;;;;;;;;;;;;29.13;36.22;100966.34;5157356;27;813;-38
2021/09/16 10:15:12;;;;;;;;;;;;;;;29.23;35.45;100959.78;5157668;27;1908;-37
2021/09/16 10:17:38;;;;;;;;;;;;;;;29.19;35.40;100968.28;5157424;27;827;-36
2021/09/16 10:20:04;;;;;;;;;;;;;;;29.12;35.50;100969.22;5155837;27;826;-37
2021/09/16 10:22:29;;;;;;;;;;;;;;;29.16;35.51;100965.94;5147873;27;1617;-38
2021/09/16 10:24:54;;;;;;;;;;;;;;;29.11;35.74;100957.59;5143106;27;831;-38
2021/09/16 10:27:36;;;;;;;;;;;;;;;29.04;36.84;100952.09;5137792;27;868;-38
2021/09/16 10:30:28;;;;;;;;;;;;;;;29.20;36.44;100951.00;5157385;27;762;-44
2021/09/16 10:32:59;;;;;;;;;;;;;;;29.08;36.26;100945.25;5124719;27;1320;-42
2021/09/16 10:35:24;;;;;;;;;;;;;;;29.18;36.26;100947.63;5157035;27;1905;-42
2021/09/16 10:37:49;;;;;;;;;;;;;;;29.21;36.74;100943.72;5147604;27;918;-37
2021/09/16 10:40:22;;;;;;;;;;;;;;;29.24;36.95;100950.63;5156910;27;755;-41
2021/09/16 10:42:54;;;;;;;;;;;;;;;29.18;37.02;100941.38;5156138;27;862;-40
2021/09/16 10:45:46;;;;;;;;;;;;;;;29.27;36.75;100948.38;5156904;27;846;-36
2021/09/16 10:48:11;;;;;;;;;;;;;;;29.46;34.90;100946.03;5152846;27;1360;-38
2021/09/16 10:50:41;;;;;;;;;;;;;;;29.38;34.32;100940.75;5155588;27;831;-36
2021/09/16 10:53:24;;;;;;;;;;;;;;;28.96;33.36;100939.44;5136868;27;1016;-35
2021/09/16 10:55:50;;;;;;;;;;;;;;;29.06;33.24;100943.78;5136110;27;1902;-37
2021/09/16 10:58:24;;;;;;;;;;;;;;;29.27;35.56;100942.09;5135885;27;854;-40
2021/09/16 11:00:50;;;;;;;;;;;;;;;29.37;35.78;100939.06;5135712;27;830;-42
2021/09/16 11:03:16;;;;;;;;;;;;;;;29.49;36.04;100936.69;5151448;27;859;-38
2021/09/16 11:05:46;;;;;;;;;;;;;;;29.44;36.18;100935.41;5156283;27;853;-44
2021/09/16 11:08:12;;;;;;;;;;;;;;;29.56;36.19;100932.16;5136541;27;949;-39
2021/09/16 11:10:43;;;;;;;;;;;;;;;29.67;35.93;100933.53;5136109;28;770;-42
2021/09/16 11:13:27;;;;;;;;;;;;;;;29.69;35.96;100939.59;5136080;28;770;-42
2021/09/16 11:15:55;;;;;;;;;;;;;;;29.56;36.24;100929.44;5149503;27;1974;-36
2021/09/16 11:18:22;;;;;;;;;;;;;;;29.56;35.86;100934.88;5156771;27;770;-34
2021/09/16 11:20:48;;;;;;;;;;;;;;;29.72;35.92;100930.22;5156538;27;1653;-36
2021/09/16 11:23:13;;;;;;;;;;;;;;;29.75;36.23;100932.53;5136707;27;977;-43
2021/09/16 11:25:39;;;;;;;;;;;;;;;29.78;36.12;100938.41;5135787;28;755;-37
2021/09/16 11:28:07;;;;;;;;;;;;;;;29.76;36.41;100931.50;5144669;27;844;-36
2021/09/16 11:30:39;;;;;;;;;;;;;;;29.80;36.21;100925.50;5158170;27;881;-33
2021/09/16 11:33:08;;;;;;;;;;;;;;;29.56;33.89;100924.03;5161074;27;850;-38
2021/09/16 11:35:33;;;;;;;;;;;;;;;29.87;35.43;100925.53;5160688;27;1905;-38
2021/09/16 11:37:59;;;;;;;;;;;;;;;29.83;35.10;100918.81;5154189;27;949;-35
2021/09/16 11:40:25;;;;;;;;;;;;;;;29.97;34.78;100927.91;5140776;27;1304;-43
2021/09/16 11:42:51;;;;;;;;;;;;;;;29.91;34.72;100912.44;5160531;27;766;-41
2021/09/16 11:45:17;;;;;;;;;;;;;;;29.85;34.91;100918.63;5160346;27;734;-42
2021/09/16 11:47:44;;;;;;;;;;;;;;;29.88;34.75;100918.25;5161360;27;723;-36
2021/09/16 11:50:29;;;;;;;;;;;;;;;29.57;35.53;100904.00;5159847;27;1197;-39
2021/09/16 11:53:03;;;;;;;;;;;;;;;29.65;35.50;100909.31;5144763;27;2021;-43
2021/09/16 11:55:29;;;;;;;;;;;;;;;29.69;35.56;100904.34;5159589;27;1974;-43
2021/09/16 11:58:07;;;;;;;;;;;;;;;29.82;36.55;100906.31;5158332;27;1547;-40
2021/09/16 12:00:35;;;;;;;;;;;;;;;29.70;35.83;100900.59;5160710;27;766;-43
2021/09/16 12:03:03;;;;;;;;;;;;;;;29.51;35.73;100894.78;5160274;27;866;-43
2021/09/16 12:05:31;;;;;;;;;;;;;;;29.37;35.28;100893.00;5158653;27;846;-35
2021/09/16 12:07:56;;;;;;;;;;;;;;;29.54;34.92;100891.69;5141978;27;1121;-37
2021/09/16 12:10:22;;;;;;;;;;;;;;;29.42;35.43;100885.97;5138913;27;822;-37
2021/09/16 12:12:47;;;;;;;;;;;;;;;29.04;36.32;100891.66;5120805;27;869;-38
2021/09/16 12:15:19;;;;;;;;;;;;;;;29.41;35.84;100878.03;5120530;27;1905;-41
2021/09/16 12:17:44;;;;;;;;;;;;;;;29.62;35.72;100874.47;5138206;27;866;-42
2021/09/16 12:20:10;;;;;;;;;;;;;;;29.76;36.45;100875.38;5155925;27;850;-37
2021/09/16 12:22:35;;;;;;;;;;;;;;;29.80;36.32;100881.25;5143174;27;1525;-39
2021/09/16 12:25:00;;;;;;;;;;;;;;;29.75;35.13;100876.44;5159635;27;819;-37
2021/09/16 12:27:26;;;;;;;;;;;;;;;29.55;35.09;100876.25;5159600;27;830;-34
2021/09/16 12:29:54;;;;;;;;;;;;;;;28.94;36.30;100875.69;5159943;27;787;-37
2021/09/16 12:32:28;;;;;;;;;;;;;;;29.25;36.02;100868.28;5147834;27;855;-42
2021/09/16 12:34:54;;;;;;;;;;;;;;;29.24;36.03;100869.34;5159368;27;846;-42
2021/09/16 12:37:19;;;;;;;;;;;;;;;29.20;36.20;100858.91;5152978;27;1901;-36
2021/09/16 12:39:48;;;;;;;;;;;;;;;29.34;36.10;100865.25;5159212;27;830;-35
2021/09/16 12:42:16;;;;;;;;;;;;;;;29.53;36.62;100853.97;5158560;27;829;-43
2021/09/16 12:44:42;;;;;;;;;;;;;;;29.51;36.29;100853.31;5157986;27;873;-41
2021/09/16 12:47:17;;;;;;;;;;;;;;;28.77;36.79;100861.56;5158807;27;748;-40
2021/09/16 12:49:42;;;;;;;;;;;;;;;28.27;37.13;100854.06;5159391;27;1371;-38